createdAt,value
2018-08-22T00:00:33.925Z,18.80
2018-08-22T00:03:02.662Z,17.53
2018-08-22T00:05:31.366Z,16.10
2018-08-22T00:08:00.062Z,27.33
2018-08-22T00:10:28.802Z,18.53
2018-08-22T00:12:57.501Z,21.07
2018-08-22T00:15:26.233Z,17.93
2018-08-22T00:17:54.985Z,19.57
2018-08-22T00:20:23.689Z,20.10
2018-08-22T00:22:52.398Z,21.60
2018-08-22T00:25:21.210Z,17.43
2018-08-22T00:27:49.997Z,16.93
2018-08-22T00:30:18.729Z,18.23
2018-08-22T00:32:47.555Z,15.10
2018-08-22T00:35:16.265Z,54.47
2018-08-22T00:37:44.957Z,17.03
2018-08-22T00:40:13.834Z,18.17
2018-08-22T00:42:42.552Z,14.47
2018-08-22T00:45:11.275Z,16.07
2018-08-22T00:47:39.989Z,18.40
2018-08-22T00:50:08.709Z,19.37
2018-08-22T00:52:37.433Z,14.50
2018-08-22T00:55:06.177Z,21.93
2018-08-22T00:57:34.880Z,19.90
2018-08-22T01:00:03.619Z,33.63
2018-08-22T01:02:32.325Z,17.63
2018-08-22T01:05:01.117Z,20.83
2018-08-22T01:07:29.825Z,18.00
2018-08-22T01:09:58.513Z,16.80
2018-08-22T01:12:27.208Z,22.33
2018-08-22T01:14:56.097Z,32.77
2018-08-22T01:17:24.982Z,16.63
2018-08-22T01:19:53.717Z,20.60
2018-08-22T01:22:22.405Z,17.90
2018-08-22T01:24:51.114Z,21.17
2018-08-22T01:27:22.317Z,21.23
2018-08-22T01:29:53.183Z,26.33
2018-08-22T01:32:22.453Z,24.40
2018-08-22T01:34:52.061Z,15.60
2018-08-22T01:37:20.753Z,14.40
2018-08-22T01:39:49.745Z,22.03
2018-08-22T01:42:19.015Z,12.73
2018-08-22T01:44:48.037Z,17.50
2018-08-22T01:47:17.129Z,31.10
2018-08-22T01:49:45.826Z,15.87
2018-08-22T01:52:14.517Z,19.27
2018-08-22T01:54:43.214Z,21.67
2018-08-22T01:57:11.897Z,16.87
2018-08-22T01:59:40.607Z,18.30
2018-08-22T02:02:09.337Z,16.83
2018-08-22T02:04:38.026Z,18.53
2018-08-22T02:07:06.751Z,16.10
2018-08-22T02:09:35.517Z,15.07
2018-08-22T02:12:04.260Z,17.20
2018-08-22T02:14:33.020Z,20.80
2018-08-22T02:17:01.713Z,26.63
2018-08-22T02:19:30.401Z,17.20
2018-08-22T02:21:59.092Z,11.90
2018-08-22T02:24:27.925Z,16.40
2018-08-22T02:26:56.665Z,14.90
2018-08-22T02:29:25.363Z,14.50
2018-08-22T02:31:54.134Z,17.27
2018-08-22T02:34:22.855Z,16.93
2018-08-22T02:36:51.779Z,19.00
2018-08-22T02:39:20.603Z,15.60
2018-08-22T02:41:49.312Z,16.40
2018-08-22T02:44:18.015Z,18.17
2018-08-22T02:46:46.705Z,19.70
2018-08-22T02:49:16.228Z,25.63
2018-08-22T02:51:44.921Z,17.50
2018-08-22T02:54:13.602Z,17.90
2018-08-22T02:56:42.337Z,16.93
2018-08-22T02:59:11.429Z,17.10
2018-08-22T03:01:40.173Z,16.37
2018-08-22T03:04:08.921Z,21.40
2018-08-22T03:06:37.625Z,17.27
2018-08-22T03:09:07.926Z,17.63
2018-08-22T03:11:36.657Z,20.50
2018-08-22T03:14:05.553Z,15.93
2018-08-22T03:16:34.260Z,26.40
2018-08-22T03:19:02.945Z,15.13
2018-08-22T03:21:31.683Z,16.23
2018-08-22T03:24:00.360Z,21.90
2018-08-22T03:26:29.087Z,25.27
2018-08-22T03:28:57.772Z,19.43
2018-08-22T03:31:26.469Z,17.53
2018-08-22T03:33:55.216Z,21.07
2018-08-22T03:36:23.937Z,25.03
2018-08-22T03:38:52.649Z,20.87
2018-08-22T03:41:21.345Z,18.67
2018-08-22T03:43:50.038Z,17.20
2018-08-22T03:46:18.794Z,20.83
2018-08-22T03:48:47.509Z,19.27
2018-08-22T03:51:16.216Z,23.53
2018-08-22T03:53:44.923Z,21.23
2018-08-22T03:56:13.633Z,16.27
2018-08-22T03:58:42.691Z,17.53
2018-08-22T04:01:11.398Z,11.43
2018-08-22T04:03:40.081Z,18.33
2018-08-22T04:06:08.969Z,20.83
2018-08-22T04:08:37.677Z,24.20
2018-08-22T04:11:06.493Z,36.27
2018-08-22T04:13:35.184Z,11.53
2018-08-22T04:16:03.905Z,17.57
2018-08-22T04:18:32.602Z,38.80
2018-08-22T04:21:01.305Z,16.10
2018-08-22T04:23:30.049Z,29.23
2018-08-22T04:25:58.752Z,22.20
2018-08-22T04:28:27.548Z,33.03
2018-08-22T04:30:56.285Z,12.47
2018-08-22T04:33:25.123Z,14.17
2018-08-22T04:35:53.813Z,12.93
2018-08-22T04:38:22.527Z,18.03
2018-08-22T04:40:51.213Z,11.53
2018-08-22T04:43:19.900Z,14.10
2018-08-22T04:45:48.585Z,16.20
2018-08-22T04:48:17.330Z,19.13
2018-08-22T04:50:45.999Z,10.93
2018-08-22T04:53:14.711Z,17.10
2018-08-22T04:55:43.462Z,21.53
2018-08-22T04:58:12.426Z,18.77
2018-08-22T05:00:41.132Z,14.83
2018-08-22T05:03:09.870Z,11.70
2018-08-22T05:05:38.565Z,11.00
2018-08-22T05:08:07.278Z,14.23
2018-08-22T05:10:35.986Z,12.53
2018-08-22T05:13:04.689Z,17.73
2018-08-22T05:15:33.433Z,14.03
2018-08-22T05:18:02.132Z,15.73
2018-08-22T05:20:30.978Z,18.10
2018-08-22T05:23:00.277Z,13.73
2018-08-22T05:25:28.985Z,14.27
2018-08-22T05:27:57.689Z,18.10
2018-08-22T05:30:26.558Z,19.97
2018-08-22T05:32:55.369Z,16.53
2018-08-22T05:35:24.145Z,19.93
2018-08-22T05:37:52.853Z,12.47
2018-08-22T05:40:21.578Z,14.60
2018-08-22T05:42:50.274Z,12.30
2018-08-22T05:45:18.966Z,11.53
2018-08-22T05:47:47.654Z,8.37
2018-08-22T05:50:16.403Z,11.50
2018-08-22T05:52:45.147Z,15.87
2018-08-22T05:55:13.901Z,11.43
2018-08-22T05:57:42.673Z,11.90
2018-08-22T06:00:11.349Z,53.67
2018-08-22T06:02:40.133Z,23.37
2018-08-22T06:05:08.841Z,19.53
2018-08-22T06:07:37.676Z,12.07
2018-08-22T06:10:06.481Z,18.43
2018-08-22T06:12:35.252Z,34.77
2018-08-22T06:15:04.003Z,22.70
2018-08-22T06:17:32.725Z,22.10
2018-08-22T06:20:01.455Z,33.17
2018-08-22T06:22:30.170Z,24.17
2018-08-22T06:24:59.036Z,21.50
2018-08-22T06:27:27.759Z,11.80
2018-08-22T06:29:58.073Z,9.30
2018-08-22T06:32:26.981Z,13.03
2018-08-22T06:34:55.714Z,9.50
2018-08-22T06:37:24.451Z,14.00
2018-08-22T06:39:53.431Z,12.07
2018-08-22T06:42:22.139Z,8.63
2018-08-22T06:44:51.185Z,11.67
2018-08-22T06:47:19.910Z,11.13
2018-08-22T06:49:48.658Z,22.48
2018-08-22T06:52:17.730Z,24.40
2018-08-22T06:54:46.435Z,19.00
2018-08-22T06:57:15.216Z,13.13
2018-08-22T06:59:43.923Z,28.73
2018-08-22T07:02:12.635Z,26.27
2018-08-22T07:04:41.339Z,18.67
2018-08-22T07:07:10.070Z,20.80
2018-08-22T07:09:38.801Z,33.05
2018-08-22T07:12:07.566Z,17.25
2018-08-22T07:14:36.265Z,20.02
2018-08-22T07:17:04.961Z,18.00
2018-08-22T07:19:33.678Z,13.35
2018-08-22T07:22:02.380Z,16.48
2018-08-22T07:24:31.092Z,14.53
2018-08-22T07:26:59.834Z,19.00
2018-08-22T07:29:28.529Z,20.57
2018-08-22T07:31:57.221Z,19.30
2018-08-22T07:34:26.073Z,15.65
2018-08-22T07:36:54.792Z,19.75
2018-08-22T07:39:23.526Z,20.43
2018-08-22T07:41:52.257Z,8.83
2018-08-22T07:44:20.979Z,26.60
2018-08-22T07:46:49.677Z,20.68
2018-08-22T07:49:18.458Z,18.07
2018-08-22T07:51:47.162Z,8.95
2018-08-22T07:54:15.857Z,11.33
2018-08-22T07:56:44.555Z,16.82
2018-08-22T07:59:14.628Z,18.15
2018-08-22T08:01:43.780Z,20.25
2018-08-22T08:04:13.510Z,14.15
2018-08-22T08:06:42.632Z,19.20
2018-08-22T08:09:13.833Z,19.05
2018-08-22T08:11:42.521Z,17.55
2018-08-22T08:14:11.210Z,15.30
2018-08-22T08:16:39.915Z,14.73
2018-08-22T08:19:09.222Z,18.55
2018-08-22T08:21:38.325Z,22.87
2018-08-22T08:24:07.386Z,21.95
2018-08-22T08:26:36.109Z,27.82
2018-08-22T08:29:04.916Z,17.00
2018-08-22T08:31:33.651Z,23.15
2018-08-22T08:34:02.345Z,14.18
2018-08-22T08:36:31.073Z,16.00
2018-08-22T08:38:59.792Z,17.07
2018-08-22T08:41:28.531Z,18.35
2018-08-22T08:43:57.375Z,22.80
2018-08-22T08:46:26.164Z,23.98
2018-08-22T08:48:54.889Z,20.40
2018-08-22T08:51:23.598Z,19.12
2018-08-22T08:53:52.314Z,15.63
2018-08-22T08:56:21.001Z,12.70
2018-08-22T08:58:49.685Z,16.87
2018-08-22T09:01:18.390Z,11.70
2018-08-22T09:03:47.119Z,15.05
2018-08-22T09:06:15.822Z,13.75
2018-08-22T09:08:44.545Z,7.90
2018-08-22T09:11:13.229Z,15.78
2018-08-22T09:13:46.039Z,11.83
2018-08-22T09:16:14.735Z,14.98
2018-08-22T09:18:43.426Z,7.53
2018-08-22T09:21:12.197Z,9.13
2018-08-22T09:23:40.850Z,13.05
2018-08-22T09:26:09.709Z,12.15
2018-08-22T09:28:38.418Z,13.40
2018-08-22T09:31:07.126Z,15.23
2018-08-22T09:33:35.927Z,6.30
2018-08-22T09:36:04.706Z,10.25
2018-08-22T09:38:33.500Z,13.13
2018-08-22T09:41:02.333Z,15.85
2018-08-22T09:43:31.071Z,8.43
2018-08-22T09:45:59.756Z,13.85
2018-08-22T09:48:28.461Z,6.53
2018-08-22T09:50:57.389Z,6.37
2018-08-22T09:53:26.053Z,8.20
2018-08-22T09:55:54.737Z,6.50
2018-08-22T09:58:23.594Z,7.72
2018-08-22T10:00:57.403Z,10.85
2018-08-22T10:03:26.291Z,8.45
2018-08-22T10:05:54.971Z,6.12
2018-08-22T10:08:23.653Z,5.78
2018-08-22T10:10:52.337Z,7.35
2018-08-22T10:13:21.155Z,6.25
2018-08-22T10:15:49.886Z,9.73
2018-08-22T10:18:18.616Z,6.92
2018-08-22T10:20:47.302Z,5.50
2018-08-22T10:23:17.911Z,14.25
2018-08-22T10:25:46.897Z,8.40
2018-08-22T10:28:15.782Z,16.37
2018-08-22T10:30:44.510Z,12.33
2018-08-22T10:33:13.221Z,7.12
2018-08-22T10:35:41.965Z,19.25
2018-08-22T10:38:10.675Z,6.65
2018-08-22T10:40:39.418Z,6.30
2018-08-22T10:43:08.114Z,7.03
2018-08-22T10:45:36.818Z,11.55
2018-08-22T10:48:05.547Z,6.67
2018-08-22T10:50:34.391Z,5.72
2018-08-22T10:53:03.234Z,13.10
2018-08-22T10:55:32.018Z,6.92
2018-08-22T10:58:00.733Z,8.68
2018-08-22T11:00:29.480Z,5.08
2018-08-22T11:02:58.192Z,9.30
2018-08-22T11:05:26.945Z,8.25
2018-08-22T11:07:56.637Z,5.58
2018-08-22T11:10:25.348Z,4.80
2018-08-22T11:12:54.091Z,12.47
2018-08-22T11:15:22.790Z,6.30
2018-08-22T11:17:51.490Z,6.55
2018-08-22T11:20:20.208Z,17.30
2018-08-22T11:23:00.275Z,8.78
2018-08-22T11:25:40.315Z,8.05
2018-08-22T11:28:19.993Z,9.05
2018-08-22T11:30:59.677Z,8.85
2018-08-22T11:33:39.363Z,6.62
2018-08-22T11:36:07.036Z,9.98
2018-08-22T11:38:35.829Z,5.90
2018-08-22T11:41:04.688Z,6.45
2018-08-22T11:43:33.506Z,10.00
2018-08-22T11:46:02.338Z,9.68
2018-08-22T11:48:31.071Z,7.67
2018-08-22T11:50:59.807Z,6.65
2018-08-22T11:53:28.513Z,5.42
2018-08-22T11:55:57.423Z,10.18
2018-08-22T11:58:27.128Z,5.97
2018-08-22T12:00:55.874Z,11.48
2018-08-22T12:03:24.622Z,13.08
2018-08-22T12:05:53.383Z,5.30
2018-08-22T12:08:22.128Z,9.58
2018-08-22T12:10:50.827Z,7.92
2018-08-22T12:13:19.829Z,5.65
2018-08-22T12:15:48.548Z,7.83
2018-08-22T12:18:17.277Z,13.98
2018-08-22T12:20:46.072Z,5.67
2018-08-22T12:23:14.944Z,12.47
2018-08-22T12:25:43.560Z,9.28
2018-08-22T12:28:12.256Z,12.15
2018-08-22T12:30:41.085Z,14.05
2018-08-22T12:33:09.943Z,13.80
2018-08-22T12:35:38.688Z,11.60
2018-08-22T12:38:07.409Z,12.60
2018-08-22T12:40:36.205Z,12.47
2018-08-22T12:43:04.963Z,12.80
2018-08-22T12:45:33.718Z,8.88
2018-08-22T12:48:02.533Z,7.37
2018-08-22T12:50:31.299Z,8.30
2018-08-22T12:53:00.093Z,11.43
2018-08-22T12:55:28.859Z,8.70
2018-08-22T12:57:57.620Z,8.78
2018-08-22T13:00:26.498Z,8.00
2018-08-22T13:02:55.259Z,5.97
2018-08-22T13:05:23.987Z,5.22
2018-08-22T13:07:52.736Z,6.37
2018-08-22T13:10:21.479Z,4.70
2018-08-22T13:12:50.256Z,7.95
2018-08-22T13:15:19.044Z,6.30
2018-08-22T13:17:47.786Z,9.75
2018-08-22T13:20:16.559Z,12.40
2018-08-22T13:22:45.355Z,10.20
2018-08-22T13:25:14.083Z,10.35
2018-08-22T13:27:42.863Z,7.73
2018-08-22T13:30:11.841Z,6.92
2018-08-22T13:32:40.713Z,8.05
2018-08-22T13:35:09.490Z,7.92
2018-08-22T13:37:38.173Z,8.58
2018-08-22T13:40:06.990Z,19.27
2018-08-22T13:42:35.781Z,15.97
2018-08-22T13:45:04.551Z,8.40
2018-08-22T13:47:33.321Z,23.33
2018-08-22T13:50:02.068Z,19.57
2018-08-22T13:52:30.873Z,10.20
2018-08-22T13:54:59.633Z,10.97
2018-08-22T13:57:28.526Z,13.10
2018-08-22T13:59:57.281Z,8.77
2018-08-22T14:02:26.333Z,17.27
2018-08-22T14:04:55.328Z,9.53
2018-08-22T14:07:24.127Z,15.03
2018-08-22T14:09:52.897Z,12.43
2018-08-22T14:12:21.638Z,10.63
2018-08-22T14:14:50.376Z,12.60
2018-08-22T14:17:19.121Z,11.90
2018-08-22T14:19:47.981Z,21.67
2018-08-22T14:22:16.791Z,23.23
2018-08-22T14:24:45.573Z,12.27
2018-08-22T14:27:14.286Z,9.87
2018-08-22T14:29:43.201Z,14.53
2018-08-22T14:32:11.953Z,47.07
2018-08-22T14:34:40.709Z,13.83
2018-08-22T14:37:09.460Z,17.40
2018-08-22T14:39:38.416Z,47.87
2018-08-22T14:42:08.012Z,14.33
2018-08-22T14:44:36.805Z,10.43
2018-08-22T14:47:11.860Z,19.33
2018-08-22T14:49:40.863Z,21.40
2018-08-22T14:52:09.630Z,19.27
2018-08-22T14:54:39.355Z,11.20
2018-08-22T14:57:08.606Z,10.90
2018-08-22T14:59:37.458Z,23.47
2018-08-22T15:02:06.278Z,22.80
2018-08-22T15:04:35.036Z,17.63
2018-08-22T15:07:03.887Z,15.93
2018-08-22T15:09:32.622Z,12.10
2018-08-22T15:12:01.368Z,12.00
2018-08-22T15:14:30.099Z,23.90
2018-08-22T15:16:58.834Z,14.70
2018-08-22T15:19:27.663Z,16.60
2018-08-22T15:21:56.431Z,11.53
2018-08-22T15:24:25.157Z,9.93
2018-08-22T15:26:53.990Z,27.23
2018-08-22T15:29:22.758Z,23.27
2018-08-22T15:31:51.549Z,18.03
2018-08-22T15:34:20.317Z,17.33
2018-08-22T15:36:49.099Z,10.73
2018-08-22T15:39:17.859Z,18.30
2018-08-22T15:41:46.655Z,14.67
2018-08-22T15:44:15.460Z,14.10
2018-08-22T15:46:44.233Z,14.20
2018-08-22T15:49:12.991Z,18.77
2018-08-22T15:51:41.826Z,43.27
2018-08-22T15:54:12.878Z,22.63
2018-08-22T15:56:42.346Z,23.37
2018-08-22T15:59:11.748Z,26.90
2018-08-22T16:01:40.705Z,24.27
2018-08-22T16:04:09.820Z,32.97
2018-08-22T16:06:38.561Z,21.77
2018-08-22T16:09:11.805Z,13.67
2018-08-22T16:11:40.544Z,35.77
2018-08-22T16:14:09.386Z,25.50
2018-08-22T16:16:38.213Z,24.33
2018-08-22T16:19:07.000Z,14.63
2018-08-22T16:21:38.000Z,15.33
2018-08-22T16:24:06.862Z,30.77
2018-08-22T16:26:35.741Z,25.93
2018-08-22T16:29:04.525Z,34.30
2018-08-22T16:31:39.309Z,48.47
2018-08-22T16:34:09.977Z,21.10
2018-08-22T16:36:40.043Z,18.90
2018-08-22T16:39:09.374Z,50.03
2018-08-22T16:41:38.147Z,32.47
2018-08-22T16:44:06.891Z,26.63
2018-08-22T16:46:35.660Z,23.60
2018-08-22T16:49:04.398Z,24.60
2018-08-22T16:51:33.147Z,52.47
2018-08-22T16:54:07.140Z,62.23
2018-08-22T16:56:36.436Z,38.17
2018-08-22T16:59:13.908Z,51.13
2018-08-22T17:01:46.651Z,49.33
2018-08-22T17:04:15.449Z,39.10
2018-08-22T17:06:44.220Z,53.07
2018-08-22T17:09:13.226Z,56.53
2018-08-22T17:11:42.136Z,97.47
2018-08-22T17:14:11.153Z,111.30
2018-08-22T17:16:39.939Z,108.53
2018-08-22T17:19:08.685Z,132.10
2018-08-22T17:21:37.435Z,119.23
2018-08-22T17:24:06.535Z,108.20
2018-08-22T17:26:35.426Z,111.47
2018-08-22T17:29:04.278Z,88.17
2018-08-22T17:31:33.073Z,93.13
2018-08-22T17:34:03.180Z,73.37
2018-08-22T17:36:31.980Z,87.80
2018-08-22T17:39:01.666Z,82.17
2018-08-22T17:41:31.067Z,65.60
2018-08-22T17:44:10.103Z,65.50
2018-08-22T17:46:44.129Z,62.93
2018-08-22T17:49:12.906Z,58.17
2018-08-22T17:51:55.730Z,48.57
2018-08-22T17:54:24.712Z,25.13
2018-08-22T17:57:08.177Z,39.87
2018-08-22T17:59:43.824Z,36.87
2018-08-22T18:02:21.161Z,25.80
2018-08-22T18:05:02.377Z,33.10
2018-08-22T18:07:37.179Z,41.37
2018-08-22T18:10:12.684Z,18.03
2018-08-22T18:12:48.719Z,28.80
2018-08-22T18:15:24.218Z,26.93
2018-08-22T18:17:59.594Z,25.77
2018-08-22T18:20:37.520Z,37.80
2018-08-22T18:23:13.018Z,28.83
2018-08-22T18:25:50.992Z,27.23
2018-08-22T18:28:25.863Z,28.77
2018-08-22T18:30:54.774Z,32.27
2018-08-22T18:33:23.702Z,38.37
2018-08-22T18:35:52.844Z,52.23
2018-08-22T18:38:24.751Z,30.93
2018-08-22T18:41:06.688Z,40.93
2018-08-22T18:43:39.851Z,40.33
2018-08-22T18:46:12.773Z,36.50
2018-08-22T18:48:46.488Z,45.03
2018-08-22T18:51:20.623Z,30.30
2018-08-22T18:53:54.410Z,29.63
2018-08-22T18:56:28.759Z,34.97
2018-08-22T18:59:06.478Z,26.37
2018-08-22T19:01:40.491Z,29.90
2018-08-22T19:04:13.536Z,31.03
2018-08-22T19:06:46.709Z,36.30
2018-08-22T19:09:19.950Z,43.43
2018-08-22T19:11:53.035Z,28.10
2018-08-22T19:14:35.979Z,42.07
2018-08-22T19:17:09.163Z,32.43
2018-08-22T19:19:49.122Z,29.77
2018-08-22T19:22:18.840Z,57.70
2018-08-22T19:25:04.547Z,25.47
2018-08-22T19:27:34.470Z,27.20
2018-08-22T19:30:04.932Z,35.07
2018-08-22T19:32:33.733Z,38.37
2018-08-22T19:35:02.456Z,23.13
2018-08-22T19:37:31.184Z,24.90
2018-08-22T19:40:05.698Z,28.40
2018-08-22T19:42:36.574Z,27.30
2018-08-22T19:45:10.873Z,24.33
2018-08-22T19:47:40.228Z,22.40
2018-08-22T19:50:10.028Z,25.87
2018-08-22T19:52:38.807Z,20.00
2018-08-22T19:55:08.256Z,25.87
2018-08-22T19:57:39.090Z,33.07
2018-08-22T20:00:09.529Z,30.87
2018-08-22T20:02:38.632Z,24.17
2018-08-22T20:05:08.623Z,32.23
2018-08-22T20:07:37.717Z,23.80
2018-08-22T20:10:06.978Z,29.93
2018-08-22T20:12:52.515Z,32.90
2018-08-22T20:15:21.594Z,41.10
2018-08-22T20:17:51.662Z,58.67
2018-08-22T20:20:21.029Z,34.37
2018-08-22T20:22:53.064Z,30.77
2018-08-22T20:25:21.834Z,52.13
2018-08-22T20:27:50.597Z,22.73
2018-08-22T20:30:25.615Z,24.17
2018-08-22T20:32:59.912Z,24.93
2018-08-22T20:35:37.805Z,31.70
2018-08-22T20:38:10.678Z,36.50
2018-08-22T20:40:39.549Z,28.40
2018-08-22T20:43:15.236Z,27.33
2018-08-22T20:45:44.885Z,21.10
2018-08-22T20:48:14.738Z,25.03
2018-08-22T20:50:44.781Z,37.17
2018-08-22T20:53:15.521Z,20.80
2018-08-22T20:55:44.327Z,22.23
2018-08-22T20:58:18.431Z,21.23
2018-08-22T21:00:47.186Z,19.03
2018-08-22T21:03:18.118Z,31.53
2018-08-22T21:05:46.972Z,28.10
2018-08-22T21:08:15.826Z,26.23
2018-08-22T21:10:44.741Z,23.73
2018-08-22T21:13:18.524Z,19.73
2018-08-22T21:15:47.351Z,19.77
2018-08-22T21:18:16.159Z,22.80
2018-08-22T21:20:44.897Z,26.57
2018-08-22T21:23:13.638Z,22.47
2018-08-22T21:25:44.607Z,25.37
2018-08-22T21:28:13.805Z,22.40
2018-08-22T21:30:50.487Z,27.20
2018-08-22T21:33:19.260Z,18.23
2018-08-22T21:35:48.042Z,19.70
2018-08-22T21:38:18.712Z,28.50
2018-08-22T21:40:47.584Z,27.70
2018-08-22T21:43:16.416Z,22.90
2018-08-22T21:45:47.629Z,26.93
2018-08-22T21:48:17.861Z,25.07
2018-08-22T21:50:46.946Z,24.67
2018-08-22T21:53:15.690Z,22.33
2018-08-22T21:55:46.933Z,22.07
2018-08-22T21:58:15.714Z,21.43
2018-08-22T22:00:44.506Z,21.93
2018-08-22T22:03:14.025Z,29.20
2018-08-22T22:05:47.266Z,27.80
2018-08-22T22:08:16.046Z,26.70
2018-08-22T22:10:44.839Z,24.00
2018-08-22T22:13:13.574Z,23.60
2018-08-22T22:15:43.003Z,25.53
2018-08-22T22:18:11.878Z,26.33
2018-08-22T22:20:40.890Z,22.37
2018-08-22T22:23:09.685Z,22.33
2018-08-22T22:25:38.422Z,22.40
2018-08-22T22:28:07.147Z,21.60
2018-08-22T22:30:35.946Z,29.63
2018-08-22T22:33:04.668Z,28.20
2018-08-22T22:35:37.837Z,33.10
2018-08-22T22:38:11.908Z,30.53
2018-08-22T22:40:41.124Z,25.37
2018-08-22T22:43:12.882Z,20.40
2018-08-22T22:45:41.585Z,28.27
2018-08-22T22:48:10.338Z,23.80
2018-08-22T22:50:39.051Z,25.70
2018-08-22T22:53:07.773Z,25.67
2018-08-22T22:55:36.486Z,29.03
2018-08-22T22:58:05.237Z,25.83
2018-08-22T23:00:33.961Z,35.97
2018-08-22T23:03:06.621Z,27.07
2018-08-22T23:05:35.358Z,30.47
2018-08-22T23:08:04.511Z,27.77
2018-08-22T23:10:33.237Z,29.50
2018-08-22T23:13:01.969Z,25.67
2018-08-22T23:15:31.447Z,27.53
2018-08-22T23:18:01.450Z,32.30
2018-08-22T23:20:38.940Z,27.17
2018-08-22T23:23:23.975Z,24.60
2018-08-22T23:25:52.913Z,23.70
2018-08-22T23:28:21.610Z,25.60
2018-08-22T23:30:50.316Z,23.90
2018-08-22T23:33:19.045Z,25.57
2018-08-22T23:35:47.782Z,24.50
2018-08-22T23:38:21.501Z,28.43
2018-08-22T23:40:50.211Z,23.13
2018-08-22T23:43:18.953Z,29.03
2018-08-22T23:45:52.771Z,26.20
2018-08-22T23:48:26.626Z,28.07
2018-08-22T23:50:58.522Z,27.63
2018-08-22T23:53:30.159Z,27.13
2018-08-22T23:56:11.769Z,27.73
2018-08-22T23:58:41.657Z,34.27
